Sunday, December 8, 2019, 4:49 PM EST
Back to Local

KPOU, Poughkeepsie Dutchess Cty

Location: Wappingers Falls, NY, United States Lat: 41.633
Local Time: 4:49 PM EST (21:49 GMT) Lon: -73.883
Time Zone: US/Eastern Elev: 167 ft

Show me the last for .
Show Coded

Time T Td Feel RH Dir Speed Gust Alt SLP Vis Weather Sky Remarks
2019-12-08 15:53 36 20 32 51 180° 5 - 30.40 30.40 10 CLR None
2019-12-08 14:53 36 19 26 49 180° 7 16 30.40 30.40 10 CLR None
2019-12-08 13:53 36 18 30 47 Variable 7 - 30.42 30.41 10 CLR None
2019-12-08 12:53 34 18 27 51 210° 8 - 30.43 30.43 10 CLR 6-hr Min Temp (1pm): 8.1°F
6-hr Max Temp (1pm): 34.0°F
2019-12-08 11:53 30 17 26 58 210° 3 - 30.47 30.47 10 CLR None
2019-12-08 10:53 26 16 18 65 240° 7 - 30.50 30.50 10 CLR None
2019-12-08 09:53 23 15 - 71 - Calm - 30.53 30.52 10 CLR None
2019-12-08 08:53 15 10 - 79 - Calm - 30.54 30.54 10 CLR None
2019-12-08 07:53 10 5 - 79 - Calm - 30.54 30.54 10 CLR None
2019-12-08 06:53 9 4 - 79 - Calm - 30.54 30.54 10 CLR 6-hr Min Temp (7am): 9.0°F
6-hr Max Temp (7am): 16.0°F
2019-12-08 05:53 10 6 - 83 - Calm - 30.54 30.53 10 CLR None
2019-12-08 04:53 11 6 - 80 - Calm - 30.52 30.51 10 CLR None
2019-12-08 03:53 11 6 - 80 - Calm - 30.51 30.51 10 CLR None
2019-12-08 02:53 12 7 - 79 - Calm - 30.53 30.52 10 CLR None
2019-12-08 01:53 14 8 - 76 - Calm - 30.51 30.51 10 CLR None
2019-12-08 00:53 14 9 8 79 50° 3 - 30.50 30.50 10 CLR 6-hr Min Temp (1am): 12.9°F
6-hr Max Temp (1am): 26.1°F
2019-12-07 23:53 17 11 - 76 - Calm - 30.50 30.50 10 CLR 24-hr Min Temp (12am): 16.0°F
24-hr Max Temp (12am): 37.0°F
2019-12-07 22:53 18 12 - 77 - Calm - 30.50 30.49 10 CLR None
2019-12-07 21:53 18 12 - 77 - Calm - 30.49 30.49 10 CLR None
2019-12-07 20:53 22 14 - 71 - Calm - 30.48 30.47 10 CLR None
2019-12-07 19:53 21 12 - 67 - Calm - 30.46 30.46 10 CLR None
2019-12-07 18:53 25 14 21 62 310° 3 - 30.44 30.44 10 CLR 6-hr Min Temp (7pm): 25.0°F
6-hr Max Temp (7pm): 37.0°F
2019-12-07 17:53 27 15 - 60 - Calm - 30.42 30.42 10 CLR None
2019-12-07 16:53 32 14 26 46 300° 6 - 30.39 30.39 10 FEW055 None

Support USWX by starting your Amazon purchase here.